Time;durP1;ratioP1;P1;durP2;ratioP2;P2;SDS_P1;SDS_P2;PMS_P1;PMS_P2;Temp;Humidity;BMP_temperature;BMP_pressure;BME280_temperature;BME280_humidity;BME280_pressure;Samples;Min_cycle;Max_cycle;Signal;HPM_P1;HPM_P2
2022/08/04 00:01:07;;;;;;;2.00;1.00;;;26.90;44.60;;;;;;2366807;53;21004;-70
2022/08/04 00:03:55;;;;;;;2.15;1.02;;;26.80;44.80;;;;;;2344057;54;20945;-72
2022/08/04 00:06:53;;;;;;;2.20;1.15;;;26.60;44.80;;;;;;2590391;53;20897;-74
2022/08/04 00:09:37;;;;;;;2.97;1.12;;;26.70;45.10;;;;;;2343509;55;20957;-73
2022/08/04 00:12:04;;;;;;;2.40;1.10;;;26.60;45.10;;;;;;2557926;54;21476;-71
2022/08/04 00:14:36;;;;;;;2.33;1.17;;;26.50;44.90;;;;;;2557609;54;20927;-71
2022/08/04 00:17:04;;;;;;;2.65;1.05;;;26.50;45.20;;;;;;2535869;53;20946;-71
2022/08/04 00:20:07;;;;;;;2.58;1.30;;;26.40;45.70;;;;;;2310088;54;21392;-71
2022/08/04 00:22:34;;;;;;;2.70;1.10;;;26.40;45.60;;;;;;2310048;55;20915;-71
2022/08/04 00:25:05;;;;;;;2.37;1.10;;;26.40;45.30;;;;;;2321298;55;20977;-71
2022/08/04 00:27:32;;;;;;;2.22;1.12;;;26.30;45.50;;;;;;2338246;54;20950;-71
2022/08/04 00:30:37;;;;;;;2.45;1.15;;;26.30;45.60;;;;;;2321713;54;20967;-71
2022/08/04 00:33:04;;;;;;;2.30;1.10;;;26.20;46.10;;;;;;2556621;53;20902;-70
2022/08/04 00:35:31;;;;;;;2.33;1.05;;;26.20;45.80;;;;;;2324622;54;20991;-71
2022/08/04 00:38:17;;;;;;;2.92;1.20;;;26.20;45.90;;;;;;2566940;53;20934;-71
2022/08/04 00:41:00;;;;;;;2.62;1.00;;;26.10;46.30;;;;;;2344545;54;21701;-71
2022/08/04 00:44:59;;;;;;;2.30;1.00;;;26.00;46.20;;;;;;2366690;53;20943;-72
2022/08/04 00:48:22;;;;;;;1.87;0.80;;;26.00;46.30;;;;;;2317295;54;20924;-72
2022/08/04 00:51:53;;;;;;;2.05;0.98;;;26.00;46.50;;;;;;2328716;54;21018;-70
2022/08/04 00:54:33;;;;;;;2.37;0.90;;;25.90;46.40;;;;;;2344944;54;20998;-71
2022/08/04 00:59:41;;;;;;;2.47;1.25;;;25.80;46.20;;;;;;2340564;53;21400;-72
2022/08/04 01:02:24;;;;;;;1.92;0.80;;;25.80;46.30;;;;;;2586293;53;21574;-71
2022/08/04 01:05:17;;;;;;;2.10;0.95;;;25.70;46.40;;;;;;2327677;54;20930;-71
2022/08/04 01:08:21;;;;;;;2.00;1.00;;;25.70;46.70;;;;;;2336850;55;21968;-71
2022/08/04 01:14:46;;;;;;;2.35;1.00;;;25.60;46.80;;;;;;2339843;55;21020;-71
2022/08/04 01:20:45;;;;;;;2.83;0.93;;;25.50;47.00;;;;;;2590617;53;21459;-75
2022/08/04 01:23:38;;;;;;;2.20;1.15;;;25.40;46.70;;;;;;2344423;54;21043;-70
2022/08/04 01:33:01;;;;;;;2.10;0.82;;;25.40;47.20;;;;;;2326846;54;21677;-71
2022/08/04 01:35:33;;;;;;;1.40;0.75;;;25.30;47.20;;;;;;2344406;54;21014;-72
2022/08/04 01:41:24;;;;;;;2.05;0.93;;;25.10;47.70;;;;;;2590219;53;20998;-73
2022/08/04 01:43:51;;;;;;;2.30;1.17;;;25.10;47.20;;;;;;2343252;54;21909;-73
2022/08/04 01:47:00;;;;;;;1.87;0.80;;;25.00;47.30;;;;;;2365738;54;21032;-75
2022/08/04 01:49:33;;;;;;;1.70;0.77;;;25.00;47.90;;;;;;2335455;54;21006;-73
2022/08/04 01:52:00;;;;;;;3.03;1.20;;;24.90;47.50;;;;;;2529569;53;20957;-73
2022/08/04 01:54:27;;;;;;;2.25;1.15;;;24.90;47.60;;;;;;2430290;53;20970;-77
2022/08/04 01:56:56;;;;;;;3.53;1.08;;;24.90;47.70;;;;;;2344345;54;20930;-73
2022/08/04 01:59:22;;;;;;;2.30;0.90;;;24.80;47.70;;;;;;2344933;54;20951;-75
2022/08/04 02:01:49;;;;;;;1.77;0.80;;;24.80;47.80;;;;;;2344366;54;20935;-76
2022/08/04 02:08:24;;;;;;;3.30;1.20;;;24.70;48.30;;;;;;2580685;53;21108;-73
2022/08/04 02:11:03;;;;;;;1.90;0.90;;;24.70;49.00;;;;;;2521374;54;21007;-72
2022/08/04 02:16:45;;;;;;;2.12;1.00;;;24.70;48.50;;;;;;2323176;54;21007;-75
2022/08/04 02:22:46;;;;;;;2.55;1.10;;;24.60;48.80;;;;;;2399465;53;20970;-75
2022/08/04 02:25:13;;;;;;;2.20;1.00;;;24.50;48.30;;;;;;2591367;53;20934;-72
2022/08/04 02:27:53;;;;;;;2.00;0.90;;;24.50;48.40;;;;;;2344218;54;21018;-72
2022/08/04 02:30:20;;;;;;;2.90;0.98;;;24.50;48.70;;;;;;2339467;54;20937;-76
2022/08/04 02:32:47;;;;;;;1.67;0.82;;;24.40;48.50;;;;;;2436667;54;20960;-76
2022/08/04 02:35:15;;;;;;;2.05;0.95;;;24.40;48.60;;;;;;2558502;53;21078;-72
2022/08/04 02:37:51;;;;;;;2.37;1.15;;;24.40;48.60;;;;;;2344344;55;21436;-76
2022/08/04 02:40:20;;;;;;;2.37;1.00;;;24.40;49.10;;;;;;2344297;54;20970;-73
2022/08/04 02:42:47;;;;;;;2.53;1.10;;;24.30;48.80;;;;;;2344187;54;20994;-74
2022/08/04 02:45:13;;;;;;;2.12;1.10;;;24.30;48.80;;;;;;2354323;53;21427;-73
2022/08/04 02:47:39;;;;;;;2.90;1.42;;;24.30;48.90;;;;;;2586081;53;20994;-73
2022/08/04 02:50:07;;;;;;;2.50;1.20;;;24.30;49.10;;;;;;2591047;53;20995;-73
2022/08/04 02:52:34;;;;;;;2.22;1.12;;;24.30;49.10;;;;;;2344794;54;20995;-71
2022/08/04 02:55:01;;;;;;;2.10;1.10;;;24.30;49.20;;;;;;2325969;54;20966;-71
2022/08/04 02:57:28;;;;;;;2.50;1.20;;;24.20;49.20;;;;;;2344682;54;21034;-70
2022/08/04 03:00:09;;;;;;;1.95;0.98;;;24.20;49.30;;;;;;2344912;54;20971;-71
2022/08/04 03:03:15;;;;;;;2.10;1.00;;;24.20;49.40;;;;;;2336534;54;21614;-70
2022/08/04 03:12:14;;;;;;;1.85;0.80;;;24.20;49.60;;;;;;2370473;54;21022;-75
2022/08/04 03:16:38;;;;;;;1.57;0.57;;;24.20;49.70;;;;;;2337928;55;21004;-73
2022/08/04 03:20:41;;;;;;;1.48;0.70;;;24.10;49.20;;;;;;2345843;54;21274;-72
2022/08/04 03:26:45;;;;;;;1.62;0.60;;;24.10;49.00;;;;;;2344573;55;20979;-73
2022/08/04 03:29:25;;;;;;;1.67;0.77;;;24.00;49.10;;;;;;2333783;54;20974;-72
2022/08/04 03:35:05;;;;;;;1.85;0.70;;;24.00;49.30;;;;;;2325591;54;21046;-71
2022/08/04 03:38:09;;;;;;;1.40;0.70;;;23.90;49.50;;;;;;2446231;53;21844;-71
2022/08/04 03:46:45;;;;;;;1.60;0.77;;;23.90;49.50;;;;;;2318758;55;20955;-71
2022/08/04 03:55:41;;;;;;;1.70;0.77;;;23.90;49.60;;;;;;2556682;54;20931;-74
2022/08/04 03:58:29;;;;;;;;;;;23.80;49.10;;;;;;2349014;55;20949;-72
2022/08/04 04:14:35;;;;;;;1.12;0.50;;;23.70;48.90;;;;;;2356316;53;20152;-75
2022/08/04 04:20:18;;;;;;;1.17;0.47;;;23.60;48.90;;;;;;2343081;55;21096;-73
2022/08/04 04:26:27;;;;;;;1.05;0.50;;;23.60;49.20;;;;;;2311069;54;20963;-73
2022/08/04 04:29:21;;;;;;;0.90;0.52;;;23.50;50.00;;;;;;2317332;54;20945;-72
2022/08/04 04:36:18;;;;;;;2.15;0.82;;;23.50;50.20;;;;;;2293931;56;22437;-76
2022/08/04 04:39:22;;;;;;;2.10;1.00;;;23.40;49.60;;;;;;2316707;54;20951;-73
2022/08/04 04:42:25;;;;;;;1.85;0.80;;;23.40;49.80;;;;;;2317765;55;20950;-77
2022/08/04 04:51:59;;;;;;;2.10;0.95;;;23.40;50.10;;;;;;2318445;55;20970;-73
2022/08/04 04:56:02;;;;;;;1.70;0.80;;;23.40;50.20;;;;;;2344547;54;20934;-72
2022/08/04 04:58:29;;;;;;;1.75;0.80;;;23.40;50.10;;;;;;2340523;54;20957;-74
2022/08/04 05:01:29;;;;;;;1.62;0.80;;;23.30;49.90;;;;;;2328049;54;20978;-74
2022/08/04 05:06:05;;;;;;;1.42;0.70;;;23.30;50.60;;;;;;2344516;54;21121;-74
2022/08/04 05:11:03;;;;;;;1.55;0.70;;;23.30;50.70;;;;;;2343937;54;21069;-75
2022/08/04 05:15:22;;;;;;;1.37;0.70;;;23.30;51.30;;;;;;2344168;55;21026;-73
2022/08/04 05:17:51;;;;;;;2.10;0.80;;;23.40;50.70;;;;;;2337705;54;20958;-72
2022/08/04 05:20:41;;;;;;;1.85;0.93;;;23.40;50.50;;;;;;2330080;54;20999;-76
2022/08/04 05:23:14;;;;;;;2.03;0.88;;;23.40;51.10;;;;;;2343796;54;21835;-73
2022/08/04 05:26:03;;;;;;;2.17;0.90;;;23.40;51.00;;;;;;2560584;53;21725;-72
2022/08/04 05:28:37;;;;;;;2.25;1.10;;;23.40;51.60;;;;;;2342388;54;20971;-72
2022/08/04 05:31:15;;;;;;;2.20;1.10;;;23.40;51.30;;;;;;2346245;54;20946;-73
2022/08/04 05:35:23;;;;;;;2.60;1.20;;;23.40;51.20;;;;;;2342845;54;21070;-72
2022/08/04 05:37:50;;;;;;;4.18;1.08;;;23.40;51.50;;;;;;2332986;54;20942;-72
2022/08/04 05:40:17;;;;;;;2.28;0.98;;;23.50;51.30;;;;;;2402907;54;20991;-74
2022/08/04 05:42:43;;;;;;;1.98;1.10;;;23.50;51.50;;;;;;2566258;53;20916;-73
2022/08/04 05:45:12;;;;;;;4.90;1.27;;;23.50;51.60;;;;;;2401795;53;21028;-73
2022/08/04 05:47:38;;;;;;;2.53;1.30;;;23.50;51.70;;;;;;2344134;54;20969;-74
2022/08/04 05:50:05;;;;;;;2.35;1.02;;;23.60;51.80;;;;;;2344862;54;20994;-70
2022/08/04 05:52:31;;;;;;;1.80;0.82;;;23.60;51.80;;;;;;2585331;53;21015;-73
2022/08/04 05:54:58;;;;;;;2.40;1.17;;;23.70;51.90;;;;;;2326514;54;20974;-74
2022/08/04 05:57:24;;;;;;;2.30;1.08;;;23.70;52.00;;;;;;2344503;55;20967;-73
2022/08/04 05:59:52;;;;;;;2.30;1.00;;;23.80;52.10;;;;;;2343840;54;20943;-74
2022/08/04 06:02:18;;;;;;;2.22;1.20;;;23.80;52.10;;;;;;2333655;54;21387;-73
2022/08/04 06:04:46;;;;;;;2.05;0.98;;;23.80;52.10;;;;;;2331538;54;21074;-76
2022/08/04 06:07:12;;;;;;;1.70;0.80;;;23.90;52.20;;;;;;2328634;54;21701;-73
2022/08/04 06:09:39;;;;;;;2.28;1.10;;;23.90;52.20;;;;;;2347090;54;21474;-73
2022/08/04 06:12:07;;;;;;;3.78;0.95;;;24.00;52.30;;;;;;2419984;54;20970;-76
2022/08/04 06:14:41;;;;;;;2.33;1.10;;;24.00;52.30;;;;;;2327865;54;20958;-73
2022/08/04 06:17:08;;;;;;;2.97;1.10;;;24.10;52.40;;;;;;2341626;54;21452;-73
2022/08/04 06:19:35;;;;;;;2.80;1.17;;;24.10;52.40;;;;;;2327552;54;20903;-73
2022/08/04 06:22:02;;;;;;;2.83;1.20;;;24.20;52.50;;;;;;2344235;55;21817;-73
2022/08/04 06:24:28;;;;;;;2.50;1.10;;;24.30;52.60;;;;;;2344534;55;20922;-72
2022/08/04 06:26:54;;;;;;;2.92;1.27;;;24.30;52.70;;;;;;2353101;53;20919;-73
2022/08/04 06:29:39;;;;;;;2.65;1.12;;;24.40;52.80;;;;;;2407088;53;21003;-76
2022/08/04 06:32:12;;;;;;;2.65;1.48;;;24.50;52.80;;;;;;2424914;54;20974;-72
2022/08/04 06:34:39;;;;;;;2.45;1.20;;;24.60;52.90;;;;;;2344045;55;21493;-73
2022/08/04 06:37:07;;;;;;;2.50;1.20;;;24.60;52.80;;;;;;2590426;53;20986;-75
2022/08/04 06:39:34;;;;;;;2.22;1.17;;;24.70;53.60;;;;;;2373025;54;20927;-72
2022/08/04 06:42:00;;;;;;;2.30;1.10;;;24.80;53.00;;;;;;2372808;54;21062;-72
2022/08/04 06:44:27;;;;;;;2.70;1.30;;;24.90;53.00;;;;;;2317419;54;21771;-71
2022/08/04 06:46:55;;;;;;;2.60;1.10;;;24.90;53.00;;;;;;2337639;54;20952;-72
2022/08/04 06:49:24;;;;;;;2.72;1.30;;;25.10;53.10;;;;;;2340100;55;20945;-71
2022/08/04 06:51:50;;;;;;;2.47;1.30;;;25.10;53.30;;;;;;2374358;53;21008;-70
2022/08/04 06:54:17;;;;;;;2.78;1.25;;;25.20;53.30;;;;;;2336968;54;21038;-71
2022/08/04 06:56:44;;;;;;;2.33;1.27;;;25.30;53.20;;;;;;2556872;53;20965;-73
2022/08/04 06:59:11;;;;;;;2.83;1.23;;;25.40;53.10;;;;;;2313392;54;20933;-74
2022/08/04 07:01:38;;;;;;;4.05;1.60;;;25.50;53.10;;;;;;2343676;54;20969;-70
2022/08/04 07:04:04;;;;;;;2.35;1.10;;;25.60;53.10;;;;;;2334353;54;21383;-71
2022/08/04 07:06:31;;;;;;;3.37;1.30;;;25.70;53.00;;;;;;2367478;54;20965;-70
2022/08/04 07:08:58;;;;;;;2.67;1.40;;;25.80;53.00;;;;;;2576111;53;21924;-73
2022/08/04 07:11:25;;;;;;;3.05;1.40;;;25.90;53.00;;;;;;2419610;53;21004;-72
2022/08/04 07:13:52;;;;;;;2.60;1.37;;;26.00;52.90;;;;;;2343683;55;21963;-71
2022/08/04 07:16:20;;;;;;;2.60;1.27;;;26.10;52.80;;;;;;2589716;53;21077;-71
2022/08/04 07:18:46;;;;;;;3.92;1.50;;;26.20;52.80;;;;;;2342299;54;20956;-72
2022/08/04 07:21:23;;;;;;;3.58;1.45;;;26.30;52.70;;;;;;2341599;54;21473;-69
2022/08/04 07:23:51;;;;;;;3.05;1.40;;;26.40;52.80;;;;;;2345103;54;21718;-72
2022/08/04 07:26:18;;;;;;;2.35;1.30;;;26.60;52.90;;;;;;2557807;53;20968;-70
2022/08/04 07:28:45;;;;;;;3.15;1.40;;;26.70;52.90;;;;;;2343320;54;20996;-71
2022/08/04 07:31:16;;;;;;;2.70;1.23;;;26.80;52.60;;;;;;2400995;53;20905;-71
2022/08/04 07:33:42;;;;;;;5.43;1.52;;;27.00;52.20;;;;;;2342827;55;20937;-71
2022/08/04 07:36:09;;;;;;;2.47;1.20;;;27.10;52.30;;;;;;2442502;53;20985;-70
2022/08/04 07:38:51;;;;;;;3.00;1.30;;;27.30;52.30;;;;;;2343597;54;20944;-69
2022/08/04 07:41:22;;;;;;;3.10;1.50;;;27.40;51.90;;;;;;2320577;55;20957;-68
2022/08/04 07:44:04;;;;;;;2.47;1.23;;;27.60;51.80;;;;;;2344318;54;21964;-73
2022/08/04 07:46:30;;;;;;;3.67;1.20;;;27.80;51.80;;;;;;2590260;53;20956;-73
2022/08/04 07:48:58;;;;;;;2.80;1.55;;;27.90;51.70;;;;;;2342524;55;20941;-73
2022/08/04 07:51:24;;;;;;;2.45;1.20;;;28.10;51.50;;;;;;2589981;53;21510;-71
2022/08/04 07:53:53;;;;;;;2.40;1.15;;;28.20;51.20;;;;;;2342829;54;20949;-71
2022/08/04 07:56:27;;;;;;;1.80;0.85;;;28.40;51.00;;;;;;2500132;54;20977;-72
2022/08/04 07:59:05;;;;;;;2.37;1.30;;;28.60;50.80;;;;;;2352534;53;20953;-70
2022/08/04 08:01:36;;;;;;;2.37;1.25;;;28.80;50.70;;;;;;2402814;53;20981;-72
2022/08/04 08:04:07;;;;;;;3.05;1.33;;;28.90;50.40;;;;;;2339710;54;21003;-71
2022/08/04 08:06:43;;;;;;;3.53;1.40;;;29.10;50.40;;;;;;2407934;53;20992;-71
2022/08/04 08:09:25;;;;;;;2.75;1.55;;;29.20;50.00;;;;;;2354647;53;20996;-71
2022/08/04 08:11:52;;;;;;;3.30;1.42;;;29.40;49.30;;;;;;2328958;54;21071;-72
2022/08/04 08:14:19;;;;;;;2.40;1.25;;;29.50;49.60;;;;;;2344002;54;20940;-73
2022/08/04 08:16:48;;;;;;;2.45;1.25;;;29.60;49.30;;;;;;2384154;53;21024;-73
2022/08/04 08:19:18;;;;;;;2.55;1.45;;;29.70;49.20;;;;;;2327127;54;20950;-70
2022/08/04 08:21:47;;;;;;;2.33;1.25;;;29.90;48.90;;;;;;2438947;54;20944;-73
2022/08/04 08:24:13;;;;;;;2.47;1.25;;;30.00;48.90;;;;;;2319959;54;21504;-71
2022/08/04 08:26:40;;;;;;;2.30;1.20;;;30.10;48.80;;;;;;2329972;54;20929;-73
2022/08/04 08:29:07;;;;;;;3.87;1.25;;;30.20;48.70;;;;;;2331491;54;20937;-71
2022/08/04 08:31:33;;;;;;;2.55;1.33;;;30.30;48.40;;;;;;2590754;53;20952;-71
2022/08/04 08:34:02;;;;;;;2.60;1.30;;;30.50;48.30;;;;;;2320642;55;20976;-72
2022/08/04 08:36:43;;;;;;;2.55;1.35;;;30.60;48.60;;;;;;2345830;53;20973;-70
2022/08/04 08:39:23;;;;;;;2.80;1.40;;;30.70;47.90;;;;;;2344028;55;20948;-74
2022/08/04 08:51:15;;;;;;;2.97;1.42;;;30.80;47.90;;;;;;2409850;53;20936;-70
2022/08/04 08:54:16;;;;;;;4.35;0.90;;;31.20;47.90;;;;;;2343799;55;20921;-71
2022/08/04 09:00:19;;;;;;;4.90;1.45;;;31.40;47.60;;;;;;2590644;53;20985;-72
2022/08/04 09:03:44;;;;;;;2.05;1.15;;;31.50;47.30;;;;;;2344386;55;20937;-71
2022/08/04 09:08:18;;;;;;;2.42;1.10;;;31.60;46.90;;;;;;2344278;54;20929;-73
2022/08/04 09:10:46;;;;;;;2.78;1.20;;;31.70;47.10;;;;;;2590573;53;20940;-72
2022/08/04 09:13:55;;;;;;;2.33;1.30;;;31.80;46.90;;;;;;2344323;54;21032;-71
2022/08/04 09:16:31;;;;;;;3.50;1.42;;;31.90;46.60;;;;;;2344093;55;21609;-71
2022/08/04 09:19:18;;;;;;;3.37;1.42;;;32.00;46.60;;;;;;2568282;53;21168;-72
2022/08/04 09:23:14;;;;;;;2.40;1.40;;;32.00;46.40;;;;;;2336836;55;21310;-70
2022/08/04 09:27:18;;;;;;;2.03;0.93;;;32.10;46.20;;;;;;2545980;54;20997;-71
2022/08/04 09:30:07;;;;;;;3.42;1.30;;;32.40;46.10;;;;;;2555668;54;21019;-71
2022/08/04 09:32:43;;;;;;;2.65;1.10;;;32.40;44.60;;;;;;2318967;54;21199;-72
2022/08/04 09:35:30;;;;;;;2.47;1.20;;;32.50;45.10;;;;;;2517167;53;21061;-72
2022/08/04 09:38:19;;;;;;;2.62;1.10;;;32.60;44.80;;;;;;2445436;54;20937;-71
2022/08/04 09:41:14;;;;;;;3.85;1.33;;;32.70;45.10;;;;;;2317080;54;20947;-75
2022/08/04 09:44:15;;;;;;;2.50;1.40;;;32.80;44.90;;;;;;2317218;54;20991;-71
2022/08/04 09:47:23;;;;;;;2.72;1.00;;;32.90;44.00;;;;;;2318243;54;20988;-71
2022/08/04 09:50:04;;;;;;;2.53;1.25;;;33.10;44.20;;;;;;2552899;54;21457;-71
2022/08/04 09:52:53;;;;;;;2.25;1.05;;;33.20;44.40;;;;;;2389496;54;21591;-72
2022/08/04 09:55:49;;;;;;;2.03;1.02;;;33.20;44.00;;;;;;2515904;54;21005;-73
2022/08/04 10:05:08;;;;;;;3.83;0.95;;;33.30;43.20;;;;;;2317201;54;20997;-72
2022/08/04 10:15:09;;;;;;;1.48;0.70;;;33.50;43.60;;;;;;2567314;53;21009;-72
2022/08/04 10:17:50;;;;;;;1.42;0.62;;;34.10;44.10;;;;;;2344596;54;21006;-74
2022/08/04 10:20:38;;;;;;;1.75;0.90;;;34.10;42.80;;;;;;2591366;53;21420;-75
2022/08/04 10:26:42;;;;;;;1.98;0.88;;;34.20;42.80;;;;;;2343967;54;21057;-72
2022/08/04 10:29:21;;;;;;;1.73;0.82;;;34.40;42.20;;;;;;2345296;55;21042;-71
2022/08/04 10:32:03;;;;;;;1.33;0.60;;;34.50;41.50;;;;;;2344496;54;21824;-72
2022/08/04 10:34:35;;;;;;;2.12;0.75;;;34.60;41.40;;;;;;2583161;53;20994;-73
2022/08/04 10:38:06;;;;;;;;;;;34.60;41.50;;;;;;2332902;54;21081;-72
2022/08/04 10:40:55;;;;;;;1.73;0.62;;;34.70;41.40;;;;;;2413124;53;20074;-74
2022/08/04 10:43:48;;;;;;;1.48;0.60;;;34.80;41.00;;;;;;2339623;54;21081;-74
2022/08/04 10:46:38;;;;;;;1.60;0.60;;;34.90;40.00;;;;;;2580748;53;21055;-72
2022/08/04 10:49:54;;;;;;;1.05;0.50;;;34.90;39.90;;;;;;2330151;54;21466;-73
2022/08/04 10:52:44;;;;;;;1.42;0.57;;;34.90;39.00;;;;;;2541494;53;20999;-72
2022/08/04 10:55:22;;;;;;;1.62;0.60;;;35.00;38.80;;;;;;2346742;54;20966;-71
2022/08/04 10:57:58;;;;;;;1.00;0.45;;;35.00;38.60;;;;;;2590746;53;21124;-71
2022/08/04 11:00:27;;;;;;;1.40;0.50;;;35.10;38.50;;;;;;2345466;54;20978;-71
2022/08/04 11:05:52;;;;;;;2.37;0.57;;;35.10;38.20;;;;;;2455181;54;21448;-72
2022/08/04 11:08:41;;;;;;;1.42;0.70;;;35.20;37.00;;;;;;2344317;55;21207;-72
2022/08/04 11:11:43;;;;;;;1.42;0.70;;;35.30;37.10;;;;;;2344401;54;20918;-74
2022/08/04 11:14:10;;;;;;;;;;;35.40;37.00;;;;;;2460121;53;20965;-77
2022/08/04 11:16:50;;;;;;;1.37;0.60;;;35.50;37.80;;;;;;2327067;54;20447;-74
2022/08/04 11:19:35;;;;;;;1.05;0.43;;;35.60;37.00;;;;;;2344737;55;21025;-73
2022/08/04 11:22:08;;;;;;;1.17;0.60;;;35.60;36.60;;;;;;2325262;55;20962;-74
2022/08/04 11:25:50;;;;;;;1.42;0.80;;;35.70;35.70;;;;;;2320695;54;21838;-74
2022/08/04 11:28:54;;;;;;;1.02;0.60;;;35.80;36.10;;;;;;2341648;54;21016;-74
2022/08/04 11:31:31;;;;;;;1.70;0.60;;;35.80;36.10;;;;;;2343276;55;21119;-73
2022/08/04 11:34:39;;;;;;;1.80;0.80;;;35.90;36.40;;;;;;2369694;53;20989;-72
2022/08/04 11:37:13;;;;;;;1.15;0.60;;;36.00;36.40;;;;;;2590146;53;20944;-73
2022/08/04 11:40:12;;;;;;;2.08;0.65;;;36.00;35.70;;;;;;2588441;53;21000;-74
2022/08/04 11:42:42;;;;;;;1.23;0.60;;;36.10;35.20;;;;;;2325074;54;20992;-73
2022/08/04 11:45:14;;;;;;;2.47;0.60;;;36.20;35.50;;;;;;2590589;53;20977;-75
2022/08/04 11:47:50;;;;;;;1.45;0.60;;;36.30;35.10;;;;;;2344177;55;21810;-76
2022/08/04 11:50:33;;;;;;;1.50;0.70;;;36.30;35.30;;;;;;2343029;55;20976;-72
2022/08/04 11:53:01;;;;;;;1.27;0.50;;;36.40;34.50;;;;;;2320926;54;21040;-73
2022/08/04 11:55:27;;;;;;;1.55;0.70;;;36.40;35.20;;;;;;2343882;55;20852;-73
2022/08/04 11:57:54;;;;;;;0.82;0.40;;;36.40;34.80;;;;;;2342723;54;20996;-73
2022/08/04 12:00:21;;;;;;;0.52;0.40;;;36.50;34.20;;;;;;2343255;55;20940;-74
2022/08/04 12:09:54;;;;;;;1.65;0.70;;;36.50;34.00;;;;;;2338468;54;21104;-74
2022/08/04 12:14:03;;;;;;;0.52;0.30;;;36.50;32.90;;;;;;2589572;53;21012;-73
2022/08/04 12:16:41;;;;;;;1.10;0.47;;;36.80;33.50;;;;;;2340269;55;21059;-73
2022/08/04 12:19:20;;;;;;;1.55;0.52;;;36.80;33.00;;;;;;2320158;54;21313;-74
2022/08/04 12:21:49;;;;;;;1.10;0.50;;;36.90;32.40;;;;;;2343316;55;20997;-74
2022/08/04 12:24:40;;;;;;;1.50;0.52;;;36.90;32.40;;;;;;2369730;53;20946;-73
2022/08/04 12:27:15;;;;;;;1.33;0.60;;;37.00;31.70;;;;;;2308447;55;20960;-77
2022/08/04 12:29:41;;;;;;;1.67;0.62;;;37.00;31.90;;;;;;2339537;55;21025;-73
2022/08/04 12:32:54;;;;;;;1.17;0.57;;;37.10;32.20;;;;;;2343690;54;20928;-74
2022/08/04 12:35:26;;;;;;;1.35;0.60;;;37.10;31.70;;;;;;2342474;55;21008;-74
2022/08/04 12:39:14;;;;;;;1.65;0.60;;;37.20;32.00;;;;;;2563214;53;21032;-77
2022/08/04 12:45:12;;;;;;;1.30;0.80;;;37.30;31.40;;;;;;2586869;53;21028;-72
2022/08/04 12:47:39;;;;;;;0.77;0.50;;;37.40;32.10;;;;;;2321182;54;21020;-73
2022/08/04 12:50:06;;;;;;;1.08;0.50;;;37.50;32.00;;;;;;2340465;55;20952;-74
2022/08/04 12:53:12;;;;;;;1.73;0.68;;;37.50;31.40;;;;;;2589692;53;21084;-73
2022/08/04 12:55:43;;;;;;;2.42;0.50;;;37.60;30.50;;;;;;2343029;55;20964;-74
2022/08/04 12:58:16;;;;;;;1.00;0.50;;;37.60;30.90;;;;;;2343622;54;20941;-73
2022/08/04 13:00:42;;;;;;;1.45;0.52;;;37.70;30.70;;;;;;2343159;54;21402;-73
2022/08/04 13:03:14;;;;;;;1.20;0.52;;;37.70;30.70;;;;;;2590068;53;21035;-72
2022/08/04 13:05:41;;;;;;;1.25;0.65;;;37.80;30.80;;;;;;2589686;53;20924;-74
2022/08/04 13:08:11;;;;;;;1.42;0.50;;;37.80;30.90;;;;;;2589571;53;20913;-72
2022/08/04 13:10:46;;;;;;;1.35;0.60;;;37.90;30.70;;;;;;2330637;53;21799;-76
2022/08/04 13:13:26;;;;;;;1.37;0.55;;;37.90;30.50;;;;;;2494464;53;20925;-75
2022/08/04 13:15:57;;;;;;;1.50;0.60;;;38.00;30.00;;;;;;2331494;54;20889;-73
2022/08/04 13:18:25;;;;;;;1.92;0.60;;;38.00;29.80;;;;;;2343824;55;21016;-71
2022/08/04 13:20:55;;;;;;;1.10;0.50;;;38.10;30.00;;;;;;2342946;54;20905;-77
2022/08/04 13:23:24;;;;;;;1.50;0.57;;;38.10;30.10;;;;;;2534781;53;21080;-77
2022/08/04 13:25:51;;;;;;;1.67;0.70;;;38.20;30.40;;;;;;2342503;55;21063;-71
2022/08/04 13:28:23;;;;;;;1.00;0.43;;;38.20;29.70;;;;;;2492269;53;21004;-73
2022/08/04 13:30:58;;;;;;;1.08;0.52;;;38.30;29.80;;;;;;2343365;55;20984;-73
2022/08/04 13:33:49;;;;;;;1.00;0.50;;;38.30;29.60;;;;;;2574875;53;20932;-73
2022/08/04 13:36:18;;;;;;;1.08;0.47;;;38.40;29.20;;;;;;2343322;55;21853;-76
2022/08/04 13:38:56;;;;;;;1.52;0.60;;;38.40;29.50;;;;;;2552376;53;21021;-73
2022/08/04 13:41:22;;;;;;;1.25;0.62;;;38.40;29.10;;;;;;2343878;55;21004;-73
2022/08/04 13:44:00;;;;;;;1.92;0.60;;;38.50;29.10;;;;;;2408280;53;21767;-73
2022/08/04 13:46:32;;;;;;;1.30;0.60;;;38.50;28.60;;;;;;2343223;54;20992;-75
2022/08/04 13:49:00;;;;;;;1.83;0.75;;;38.60;28.60;;;;;;2588466;53;21003;-73
2022/08/04 13:51:57;;;;;;;0.88;0.43;;;38.60;28.60;;;;;;2419946;53;21371;-73
2022/08/04 13:54:42;;;;;;;1.50;0.50;;;38.60;28.40;;;;;;2435750;53;20929;-73
2022/08/04 13:57:13;;;;;;;1.60;0.65;;;38.60;28.40;;;;;;2589978;53;21501;-75
2022/08/04 13:59:41;;;;;;;1.05;0.55;;;38.70;28.40;;;;;;2343693;54;21004;-74
2022/08/04 14:02:09;;;;;;;1.10;0.50;;;38.70;28.20;;;;;;2342758;54;20936;-74
2022/08/04 14:04:39;;;;;;;1.23;0.57;;;38.70;28.10;;;;;;2522200;53;21937;-76
2022/08/04 14:07:15;;;;;;;1.15;0.50;;;38.70;27.90;;;;;;2373496;53;21657;-76
2022/08/04 14:09:42;;;;;;;1.35;0.60;;;38.70;27.50;;;;;;2410673;53;20969;-75
2022/08/04 14:12:11;;;;;;;0.75;0.40;;;38.80;27.90;;;;;;2343447;55;21004;-75
2022/08/04 14:14:48;;;;;;;1.05;0.55;;;38.80;27.70;;;;;;2487529;53;20961;-74
2022/08/04 14:17:22;;;;;;;1.48;0.52;;;38.80;27.50;;;;;;2321911;54;21004;-75
2022/08/04 14:20:21;;;;;;;1.12;0.45;;;38.80;27.40;;;;;;2480384;53;21100;-73
2022/08/04 14:22:48;;;;;;;1.73;0.60;;;38.90;27.30;;;;;;2335603;54;20959;-73
2022/08/04 14:25:17;;;;;;;0.80;0.40;;;38.90;27.50;;;;;;2407887;53;20992;-74
2022/08/04 14:27:50;;;;;;;1.30;0.60;;;39.00;27.50;;;;;;2343510;54;20960;-76
2022/08/04 14:30:50;;;;;;;1.15;0.43;;;39.00;27.10;;;;;;2493065;53;20953;-73
2022/08/04 14:33:17;;;;;;;1.10;0.57;;;39.10;27.10;;;;;;2589617;53;21044;-73
2022/08/04 14:35:45;;;;;;;1.27;0.47;;;39.10;27.40;;;;;;2465148;53;20924;-75
2022/08/04 14:38:12;;;;;;;1.20;0.60;;;39.10;27.80;;;;;;2343452;54;21011;-74
2022/08/04 14:40:40;;;;;;;1.50;0.60;;;39.20;27.70;;;;;;2475339;53;20965;-73
2022/08/04 14:43:06;;;;;;;1.90;0.70;;;39.20;27.80;;;;;;2344167;55;21005;-72
2022/08/04 14:45:41;;;;;;;1.37;0.62;;;39.20;27.60;;;;;;2379400;53;20969;-73
2022/08/04 14:48:12;;;;;;;1.30;0.55;;;39.30;27.30;;;;;;2343814;55;21471;-72
2022/08/04 14:50:41;;;;;;;1.58;0.60;;;39.30;27.30;;;;;;2343689;55;20952;-73
2022/08/04 14:53:14;;;;;;;1.27;0.60;;;39.40;27.30;;;;;;2320395;54;21569;-73
2022/08/04 14:55:44;;;;;;;1.20;0.60;;;39.40;27.10;;;;;;2519968;53;21064;-73
2022/08/04 14:58:18;;;;;;;1.55;0.73;;;39.40;27.10;;;;;;2477901;53;20932;-75
2022/08/04 15:00:45;;;;;;;2.47;0.70;;;39.50;26.80;;;;;;2331891;54;20937;-73
2022/08/04 15:03:11;;;;;;;1.40;0.60;;;39.50;27.00;;;;;;2321854;54;21735;-73
2022/08/04 15:05:38;;;;;;;1.33;0.55;;;39.50;27.10;;;;;;2471883;53;20932;-74
2022/08/04 15:08:05;;;;;;;2.47;0.80;;;39.50;26.80;;;;;;2344310;54;21867;-73
2022/08/04 15:10:36;;;;;;;1.60;0.68;;;39.50;26.80;;;;;;2448240;53;20944;-74
2022/08/04 15:13:06;;;;;;;1.35;0.60;;;39.50;26.30;;;;;;2590263;53;21063;-73
2022/08/04 15:15:33;;;;;;;1.52;0.60;;;39.50;26.60;;;;;;2516871;54;21007;-73
2022/08/04 15:18:02;;;;;;;1.50;0.70;;;39.50;26.60;;;;;;2400922;54;21795;-73
2022/08/04 15:20:28;;;;;;;1.60;0.60;;;39.60;26.40;;;;;;2351515;53;21933;-74
2022/08/04 15:22:56;;;;;;;2.35;0.57;;;39.60;26.40;;;;;;2574875;53;21037;-72
2022/08/04 15:25:22;;;;;;;1.10;0.60;;;39.60;26.40;;;;;;2351069;54;20936;-72
2022/08/04 15:27:49;;;;;;;1.10;0.57;;;39.60;26.40;;;;;;2348853;53;21981;-73
2022/08/04 15:30:17;;;;;;;2.20;1.05;;;39.50;26.20;;;;;;2405574;53;21728;-72
2022/08/04 15:32:50;;;;;;;1.90;0.98;;;39.50;26.10;;;;;;2337819;54;20984;-73
2022/08/04 15:35:20;;;;;;;0.93;0.50;;;39.50;25.80;;;;;;2317596;54;21386;-73
2022/08/04 15:38:53;;;;;;;1.98;0.80;;;39.50;26.00;;;;;;2585201;53;21020;-72
2022/08/04 15:41:25;;;;;;;1.40;0.50;;;39.50;26.20;;;;;;2590971;53;20912;-73
2022/08/04 15:45:23;;;;;;;1.27;0.50;;;39.50;25.90;;;;;;2344912;55;20969;-74
2022/08/04 15:48:25;;;;;;;1.42;0.55;;;39.50;26.00;;;;;;2344431;54;20948;-75
2022/08/04 15:51:10;;;;;;;1.17;0.55;;;39.50;25.80;;;;;;2338640;54;20957;-74
2022/08/04 15:54:37;;;;;;;0.88;0.40;;;39.40;25.50;;;;;;2314243;54;20993;-73
2022/08/04 15:57:05;;;;;;;1.17;0.55;;;39.40;25.50;;;;;;2326689;54;20972;-73
2022/08/04 15:59:58;;;;;;;1.55;0.60;;;39.40;26.30;;;;;;2584095;53;20945;-72
2022/08/04 16:03:47;;;;;;;1.30;0.60;;;39.30;25.50;;;;;;2304755;55;21000;-73
2022/08/04 16:07:04;;;;;;;1.73;0.70;;;39.40;26.00;;;;;;2390276;53;20949;-73
2022/08/04 16:09:30;;;;;;;1.95;0.50;;;39.40;25.90;;;;;;2314541;54;20918;-76
2022/08/04 16:11:56;;;;;;;1.42;0.60;;;39.40;26.00;;;;;;2337230;53;20992;-72